Tiempo atmosférico en la estación meteorológica de Briviesca, Burgos (730 m.)



Fecha
DESCASC
Temp. máxima en grados centígrados (hora)
DESCASC
Temp. mínima en grados centígrados (hora)
DESCASC
Temp. media en grados centígrados
DESCASC
Racha de viento máxima en m/sg (hora)
DESCASC
Velocidad máxima media en intervalos de 10 minutos(hora)
DESCASC
Precipitaciones diarias en mm
DESCASC
Precipitaciones de 00:00 a 06:00 en mm
DESCASC
Precipitaciones de 06:00 a 12:00 en mm
DESCASC
Precipitaciones de 12:00 a 18:00 en mm
DESCASC
Precipitaciones de 18:00 a 24:00 en mm
DESCASC
18-01-2018 12.6 (15:40) -2.1 (07:00) 5.3 7.78 (14:20) 5 (14:20) 0 0 0 0 0
17-01-2018 10 (15:10) 1.1 (23:40) 5.6 9.72 (12:00) 6.11 (12:10) 0 0 0 0 0
16-01-2018 10.1 (17:30) 5.2 (00:20) 7.7 12.5 (06:00) 7.22 (20:00) 0 0 0 0 0
15-01-2018 5.4 (21:50) -0.2 (09:00) 2.6 12.78 (18:50) 7.22 (15:40) 0 0 0 0 0
14-01-2018 4.5 (15:00) 0.8 (00:00) 2.7 9.17 (01:10) 5.83 (01:10) 1.8 1.8 0 0 0
13-01-2018 2.5 (15:00) -0.5 (-00:0) 1 7.78 (09:00) 5.28 (09:10) 4 0 0 1.4 2.6
12-01-2018 5.9 (14:20) -0.1 (00:00) 2.9 7.5 (16:50) 5.28 (16:00) 0 0 0 0 0
11-01-2018 7.4 (15:40) 1.3 (00:00) 4.4 16.39 (00:50) 9.72 (01:00) 0 0 0 0 0
10-01-2018 6.8 (15:00) 2.4 (00:00) 4.6 15 (16:50) 10.83 (17:00) 0.2 0 0 0.2 0
09-01-2018 4.1 (13:00) -0.8 (-00:0) 1.6 11.39 (14:50) 8.06 (14:50) 0 0 0 0 0
08-01-2018 6.2 (15:20) -2.2 (-00:0) 2 8.06 (23:20) 5.56 (23:20) 0 0 0 0 0
07-01-2018 2.7 (15:50) 0.2 (00:00) 1.5 10.56 (18:20) 7.5 (18:20) 11 1.2 7.4 2.4 0
06-01-2018 4.9 (00:00) 0.1 (00:00) 2.5 5.28 (00:50) 3.89 (00:50) 13.6 5.6 2.6 4.2 1.2
05-01-2018 10.5 (14:40) 4.9 (00:00) 7.7 16.39 (06:50) 11.39 (06:50) 5.6 0 0.4 0 5.2
04-01-2018 12.7 (15:10) 9.9 (23:40) 11.3 16.94 (14:00) 9.72 (19:30) 0 0 0 0 0
03-01-2018 15.6 (15:30) 10.8 (00:00) 13.2 15 (04:30) 10 (19:30) 0 0 0 0 0
02-01-2018 11.5 (16:40) 7.2 (00:00) 9.3 14.72 (02:30) 9.72 (19:20) 0.4 0 0.2 0 0.2
01-01-2018 9.3 (17:00) 2.2 (00:00) 5.8 18.33 (10:40) 12.78 (17:10) 0 0 0 0 0
31-12-2017 11.4 (14:00) 2.8 (00:00) 7.1 18.61 (14:20) 10.56 (14:20) 2 0 0 2 0
30-12-2017 13.8 (15:10) 10.1 (00:00) 12 14.17 (00:40) 9.17 (15:30) 0 0 0 0 0
29-12-2017 12.4 (15:20) 4.3 (00:00) 8.3 13.89 (09:40) 8.33 (09:20) 0.2 0 0.2 0 0
28-12-2017 10 (16:50) 3.1 (00:00) 6.5 12.78 (12:10) 7.78 (12:10) 0.2 0 0.2 0 0
27-12-2017 7.3 (00:30) 1.5 (00:00) 4.4 18.61 (01:30) 12.5 (01:20) 4 3.8 0 0.2 0
26-12-2017 7.1 (00:10) 2.8 (00:00) 4.9 21.67 (21:40) 13.89 (21:00) 1.2 0.6 0 0 0.6
25-12-2017 10.9 (14:50) -1.7 (-00:0) 4.6 12.78 (19:20) 8.33 (21:30) 1 0 0 0 1
24-12-2017 12.5 (15:00) -1.7 (-00:0) 5.4 5.56 (15:00) 3.89 (15:30) 0 0 0 0 0

Gráficas

Temp. máximas Temp. mínimas Temp. medias Precipitaciones Rachas de viento máximas Velocidades máximas media en intervalos de 10 minutos

Datos horarios

Fecha y hora oficial Temperatura (ºC) Velocidad del viento (km/h) Dirección del viento Racha (km/h) Dirección de racha Precipitación (mm) Presión (hPa) Tendencia (hPa) Humedad (%)
2018-01-22 23:00:00 7.5 0 Calma 9 Noroeste 0 -- -- 90
2018-01-22 22:00:00 7.4 5 Oeste 11 Oeste 0 -- -- 89
2018-01-22 21:00:00 7.6 4 Oeste 12 Sudoeste 0 -- -- 88
2018-01-22 20:00:00 7.4 5 Sur 10 Sur 0 -- -- 89
2018-01-22 19:00:00 8.3 4 Sur 7 Norte 0 -- -- 85
2018-01-22 18:00:00 9.7 4 Norte 15 Noroeste 0 -- -- 78
2018-01-22 17:00:00 10.1 11 Noroeste 18 Norte 0 -- -- 76
2018-01-22 16:00:00 10.5 13 Norte 26 Noroeste 0 -- -- 74
2018-01-22 15:00:00 10.7 16 Norte 26 Norte 0 -- -- 73
2018-01-22 14:00:00 10.5 15 Nordeste 29 Noroeste 0 -- -- 73
2018-01-22 13:00:00 9.4 17 Norte 31 Noroeste 0 -- -- 79
2018-01-22 12:00:00 8.4 19 Norte 31 Norte 0 -- -- 84
2018-01-22 11:00:00 8.4 13 Norte 29 Norte 0 -- -- 86
2018-01-22 10:00:00 8.2 10 Norte 21 Noroeste 0 -- -- 86
2018-01-22 09:00:00 7.9 12 Norte 26 Noroeste 0 -- -- 88
2018-01-22 08:00:00 8.1 11 Norte 21 Norte 0 -- -- 87
2018-01-22 07:00:00 8.3 11 Norte 23 Norte 0 -- -- 87
2018-01-22 06:00:00 8.3 9 Norte 21 Norte 0 -- -- 88
2018-01-22 05:00:00 8.5 10 Norte 16 Norte 0 -- -- 89
2018-01-22 04:00:00 8.4 7 Norte 19 Noroeste 0 -- -- 90
2018-01-22 03:00:00 8.5 12 Norte 18 Norte 0 -- -- 89
2018-01-22 02:00:00 8.2 14 Noroeste 19 Noroeste 0 -- -- 90
2018-01-22 01:00:00 8.4 11 Noroeste 17 Noroeste 0 -- -- 90
2018-01-22 00:00:00 8.5 11 Noroeste 20 Noroeste 0 -- -- 91
2018-01-21 23:00:00 8.6 12 Noroeste 18 Noroeste 0 -- -- 90
2018-01-21 22:00:00 8.6 14 Noroeste 18 Noroeste 0 -- -- 89
2018-01-21 21:00:00 8.5 14 Noroeste 22 Noroeste 0 -- -- 90
2018-01-21 20:00:00 8.7 6 Noroeste 18 Noroeste 0 -- -- 89
2018-01-21 19:00:00 8.4 13 Noroeste 17 Noroeste 0 -- -- 90
2018-01-21 18:00:00 9.3 9 Noroeste 21 Noroeste 0 -- -- 85
2018-01-21 17:00:00 11.2 15 Noroeste 24 Noroeste 0 -- -- 78
2018-01-21 16:00:00 11.5 16 Noroeste 28 Norte 0 -- -- 77
2018-01-21 15:00:00 11.6 19 Norte 27 Noroeste 0 -- -- 77
2018-01-21 14:00:00 11 20 Noroeste 33 Noroeste 0 -- -- 81
2018-01-21 13:00:00 11.2 9 Norte 16 Norte 0 -- -- 83
2018-01-21 12:00:00 9.8 5 Nordeste 24 Noroeste 0 -- -- 88
2018-01-21 11:00:00 7.7 0 Calma 9 Noroeste 0 -- -- 96
2018-01-21 10:00:00 7.3 8 Noroeste 24 Noroeste 0.2 -- -- 94
2018-01-21 09:00:00 6.5 0 Calma 14 Noroeste 0.2 -- -- 96
2018-01-21 08:00:00 7 9 Noroeste 22 Noroeste 0 -- -- 93
2018-01-21 07:00:00 7 15 Noroeste 25 Noroeste 0 -- -- 93
2018-01-21 06:00:00 7.2 17 Noroeste 34 Noroeste 0 -- -- 92
2018-01-21 05:00:00 7.4 22 Noroeste 42 Noroeste 0 -- -- 92
2018-01-21 04:00:00 7.7 23 Noroeste 37 Noroeste 0 -- -- 90
2018-01-21 03:00:00 7.8 25 Noroeste 36 Noroeste 0 -- -- 89
2018-01-21 02:00:00 8 26 Noroeste 39 Noroeste 0 -- -- 87
2018-01-21 01:00:00 8.1 11 Noroeste 26 Noroeste 0 -- -- 86
2018-01-21 00:00:00 7.9 12 Norte 26 Noroeste 0 -- -- 87
2018-01-20 23:00:00 8 12 Norte 21 Noroeste 0 -- -- 86
2018-01-20 22:00:00 8.5 12 Norte 36 Noroeste 0 -- -- 84
2018-01-20 21:00:00 8.8 22 Noroeste 32 Noroeste 0 -- -- 84
2018-01-20 20:00:00 9.6 14 Norte 23 Noroeste 0 -- -- 81
2018-01-20 19:00:00 9.1 2 Norte 21 Noroeste 0 -- -- 80
2018-01-20 18:00:00 9.4 12 Noroeste 27 Noroeste 0 -- -- 77
2018-01-20 17:00:00 9.3 9 Norte 31 Norte 0 -- -- 74
2018-01-20 16:00:00 10.5 16 Norte 29 Norte 0 -- -- 66
2018-01-20 15:00:00 8.6 18 Norte 25 Norte 0 -- -- 68
2018-01-20 14:00:00 6.9 12 Nordeste 29 Noroeste 0 -- -- 75
2018-01-20 13:00:00 7.9 13 Noroeste 24 Noroeste 0 -- -- 66
2018-01-20 12:00:00 6.5 7 Nordeste 23 Noroeste 0 -- -- 75
2018-01-20 11:00:00 4.9 20 Noroeste 37 Noroeste 0 -- -- 80
2018-01-20 10:00:00 4.4 24 Noroeste 38 Noroeste 0 -- -- 81
2018-01-20 09:00:00 2.3 8 Norte 25 Noroeste 0 -- -- 91
2018-01-20 08:00:00 1.3 8 Este 17 Norte 0 -- -- 95
2018-01-20 07:00:00 0.9 4 Este 24 Sudeste 0 -- -- 94
2018-01-20 06:00:00 0.4 5 Sudeste 8 Sudeste 0 -- -- 95
2018-01-20 05:00:00 0.9 2 Este 19 Sudoeste 0 -- -- 91
2018-01-20 04:00:00 1.3 3 Oeste 19 Oeste 0 -- -- 90
2018-01-20 03:00:00 1.5 12 Oeste 19 Oeste 0 -- -- 90
2018-01-20 02:00:00 1.8 13 Oeste 20 Oeste 0 -- -- 89
2018-01-20 01:00:00 2.5 12 Oeste 17 Oeste 0 -- -- 87
2018-01-20 00:00:00 3.6 5 Noroeste 10 Oeste 0 -- -- 81
2018-01-19 23:00:00 5.9 2 Norte 17 Nordeste 0 -- -- 77
2018-01-19 22:00:00 6.7 12 Nordeste 26 Norte 0 -- -- 73
2018-01-19 21:00:00 6.2 5 Noroeste 15 Nordeste 0 -- -- 76
2018-01-19 20:00:00 6.3 14 Nordeste 30 Norte 0 -- -- 76
2018-01-19 19:00:00 6.5 7 Nordeste 30 Nordeste 0 -- -- 76
2018-01-19 18:00:00 7.3 10 Nordeste 15 Nordeste 0 -- -- 76
2018-01-19 17:00:00 7.9 6 Nordeste 27 Este 0 -- -- 76
2018-01-19 16:00:00 8.3 17 Este 33 Nordeste 0 -- -- 81
2018-01-19 15:00:00 9.5 14 Nordeste 28 Nordeste 0 -- -- 78
2018-01-19 14:00:00 9.3 16 Nordeste 34 Nordeste 0 -- -- 81
2018-01-19 13:00:00 10.1 11 Norte 20 Norte 0 -- -- 75
2018-01-19 12:00:00 9.4 8 Nordeste 12 Nordeste 0 -- -- 79
2018-01-19 11:00:00 6.6 7 Noroeste 15 Oeste 0 -- -- 89
2018-01-19 10:00:00 3.3 5 Oeste 15 Oeste 0 -- -- 96
2018-01-19 09:00:00 2.2 8 Noroeste 12 Oeste 0 -- -- 98
2018-01-19 08:00:00 2.1 5 Noroeste 14 Oeste 0 -- -- 95
2018-01-19 07:00:00 3.4 10 Oeste 18 Oeste 0 -- -- 95
2018-01-19 06:00:00 3.8 10 Oeste 14 Oeste 0 -- -- 94
2018-01-19 05:00:00 3 3 Noroeste 13 Oeste 0 -- -- 95
2018-01-19 04:00:00 2.7 11 Oeste 20 Oeste 0 -- -- 94
2018-01-19 03:00:00 2.4 5 Noroeste 22 Oeste 0 -- -- 92
2018-01-19 02:00:00 2 15 Oeste 21 Oeste 0 -- -- 91
2018-01-19 01:00:00 1.8 12 Oeste 21 Oeste 0 -- -- 92
2018-01-19 00:00:00 2.5 12 Oeste 16 Oeste 0 -- -- 89
2018-01-18 23:00:00 2.1 3 Noroeste 7 Norte 0 -- -- 92
2018-01-18 22:00:00 3 0 Calma 12 Oeste 0 -- -- 89
2018-01-18 21:00:00 3.3 0 Calma 5 Noroeste 0 -- -- 87
2018-01-18 20:00:00 4.4 2 Norte 9 Noroeste 0 -- -- 84
2018-01-18 19:00:00 6.3 5 Noroeste 9 Noroeste 0 -- -- 75
2018-01-18 18:00:00 9.7 6 Norte 12 Norte 0 -- -- 62
2018-01-18 17:00:00 11 7 Este 17 Nordeste 0 -- -- 65
2018-01-18 16:00:00 12 13 Nordeste 27 Noroeste 0 -- -- 56
2018-01-18 15:00:00 11.7 15 Norte 28 Noroeste 0 -- -- 55
2018-01-18 14:00:00 9.8 4 Sur 10 Sudeste 0 -- -- 69
2018-01-18 13:00:00 7.4 5 Sudeste 8 Sudeste 0 -- -- 81
2018-01-18 12:00:00 4.9 6 Sudeste 9 Sudeste 0 -- -- 87
2018-01-18 11:00:00 3.5 3 Sur 5 Sudeste 0 -- -- 87
2018-01-18 10:00:00 0.5 0 Calma 3 Sudoeste 0 -- -- 100
2018-01-18 09:00:00 -2 0 Calma 4 Sudeste 0 -- -- 99
2018-01-18 08:00:00 -2 0 Calma 4 Noroeste 0 -- -- 99
2018-01-18 07:00:00 -2.1 0 Calma 2 Norte 0 -- -- 98
2018-01-18 06:00:00 -1.8 0 Calma 2 Norte 0 -- -- 99
2018-01-18 05:00:00 -1.5 0 Calma 2 Norte 0 -- -- 99
2018-01-18 04:00:00 -1.2 0 Calma 4 Noroeste 0 -- -- 98
2018-01-18 03:00:00 -0.8 0 Calma 3 Noroeste 0 -- -- 97
2018-01-18 02:00:00 0.3 3 Noroeste 6 Oeste 0 -- -- 95
2018-01-18 01:00:00 1 5 Oeste 15 Oeste 0 -- -- 92
2018-01-18 00:00:00 1.2 9 Oeste 17 Oeste 0 -- -- 92
2018-01-17 23:00:00 1.6 11 Oeste 15 Oeste 0 -- -- 91
2018-01-17 22:00:00 2.2 7 Oeste 13 Oeste 0 -- -- 89
2018-01-17 21:00:00 2.7 2 Norte 6 Noroeste 0 -- -- 89
2018-01-17 20:00:00 4 0 Calma 8 Sur 0 -- -- 85
2018-01-17 19:00:00 5.1 4 Sudoeste 10 Este 0 -- -- 80
2018-01-17 18:00:00 7.2 3 Nordeste 19 Nordeste 0 -- -- 71
2018-01-17 17:00:00 8.9 12 Nordeste 35 Nordeste 0 -- -- 64
2018-01-17 16:00:00 9.3 16 Nordeste 30 Nordeste 0 -- -- 62
2018-01-17 15:00:00 9.5 14 Nordeste 28 Nordeste 0 -- -- 63
2018-01-17 14:00:00 8.8 16 Nordeste 28 Este 0 -- -- 66
2018-01-17 13:00:00 7.6 15 Este 33 Nordeste 0 -- -- 72
2018-01-17 12:00:00 8.6 21 Este 35 Nordeste 0 -- -- 75
2018-01-17 11:00:00 7.8 8 Nordeste 25 Nordeste 0 -- -- 73
2018-01-17 10:00:00 6.2 3 Nordeste 13 Norte 0 -- -- 81
2018-01-17 09:00:00 5.2 8 Norte 15 Norte 0 -- -- 86
2018-01-17 08:00:00 6.4 13 Nordeste 26 Nordeste 0 -- -- 86
2018-01-17 07:00:00 7.3 6 Nordeste 17 Nordeste 0 -- -- 86
2018-01-17 06:00:00 7.6 8 Nordeste 15 Nordeste 0 -- -- 86
2018-01-17 05:00:00 7.7 10 Noroeste 18 Norte 0 -- -- 91
2018-01-17 04:00:00 7.9 10 Norte 26 Norte 0 -- -- 89
2018-01-17 03:00:00 8 15 Norte 31 Norte 0 -- -- 90
2018-01-17 02:00:00 8.5 18 Norte 29 Norte 0 -- -- 88
2018-01-17 01:00:00 8.8 14 Norte 25 Norte 0 -- -- 87
2018-01-17 00:00:00 9.1 12 Norte 25 Norte 0 -- -- 87
2018-01-16 23:00:00 9.4 10 Nordeste 36 Norte 0 -- -- 87
2018-01-16 22:00:00 9.4 15 Noroeste 26 Norte 0 -- -- 88
2018-01-16 21:00:00 9.8 20 Noroeste 39 Noroeste 0 -- -- 88
2018-01-16 20:00:00 9.8 26 Noroeste 39 Noroeste 0 -- -- 89
2018-01-16 19:00:00 9.5 18 Noroeste 30 Norte 0 -- -- 90
2018-01-16 18:00:00 9.9 9 Norte 35 Noroeste 0 -- -- 87
2018-01-16 17:00:00 9.8 12 Noroeste 24 Norte 0 -- -- 88
2018-01-16 16:00:00 9.2 15 Norte 30 Norte 0 -- -- 89
2018-01-16 15:00:00 8.7 20 Norte 44 Norte 0 -- -- 90
2018-01-16 14:00:00 8.3 21 Norte 44 Norte 0 -- -- 90
2018-01-16 13:00:00 7.8 21 Norte 38 Norte 0 -- -- 90
2018-01-16 12:00:00 7.7 19 Norte 39 Norte 0 -- -- 91
2018-01-16 11:00:00 6.6 9 Norte 24 Noroeste 0 -- -- 92
2018-01-16 10:00:00 6.4 8 Norte 31 Norte 0 -- -- 92
2018-01-16 09:00:00 6.1 16 Norte 30 Norte 0 -- -- 92
2018-01-16 08:00:00 6.2 17 Norte 32 Noroeste 0 -- -- 89
2018-01-16 07:00:00 6.3 15 Norte 39 Noroeste 0 -- -- 87
2018-01-16 06:00:00 6 22 Norte 45 Noroeste 0 -- -- 85
2018-01-16 05:00:00 5.8 18 Norte 37 Norte 0 -- -- 85
2018-01-16 04:00:00 5.8 11 Noroeste 23 Noroeste 0 -- -- 83
2018-01-16 03:00:00 5.7 12 Norte 26 Noroeste 0 -- -- 78
2018-01-16 02:00:00 5.7 3 Este 25 Noroeste 0 -- -- 78
2018-01-16 01:00:00 5.4 10 Noroeste 34 Norte 0 -- -- 78
2018-01-16 00:00:00 5.3 8 Nordeste 35 Norte 0 -- -- 77
2018-01-15 23:00:00 5.1 13 Noroeste 40 Noroeste 0 -- -- 79
2018-01-15 22:00:00 5.4 20 Noroeste 35 Norte 0 -- -- 79
2018-01-15 21:00:00 5 9 Nordeste 38 Norte 0 -- -- 81
2018-01-15 20:00:00 5.1 11 Norte 45 Norte 0 -- -- 80
2018-01-15 19:00:00 5.2 18 Norte 46 Norte 0 -- -- 80
2018-01-15 18:00:00 4.8 19 Noroeste 29 Norte 0 -- -- 82
2018-01-15 17:00:00 4.6 18 Norte 32 Noroeste 0 -- -- 83
2018-01-15 16:00:00 4.1 13 Norte 42 Norte 0 -- -- 84
2018-01-15 15:00:00 4.6 15 Norte 35 Norte 0 -- -- 82
2018-01-15 14:00:00 3.4 13 Norte 38 Norte 0 -- -- 84
2018-01-15 13:00:00 3.5 21 Norte 32 Norte 0 -- -- 84
2018-01-15 12:00:00 1.6 20 Noroeste 28 Noroeste 0 -- -- 91
2018-01-15 11:00:00 0.6 5 Noroeste 23 Noroeste 0 -- -- 93
2018-01-15 10:00:00 0.2 18 Noroeste 30 Noroeste 0 -- -- 95
2018-01-15 09:00:00 -0.2 2 Sur 9 Noroeste 0 -- -- 98
2018-01-15 08:00:00 -0.1 6 Noroeste 9 Noroeste 0 -- -- 98
2018-01-15 07:00:00 0 7 Noroeste 24 Noroeste 0 -- -- 98
2018-01-15 06:00:00 0.2 17 Noroeste 24 Noroeste 0 -- -- 98
2018-01-15 05:00:00 0.7 13 Noroeste 22 Noroeste 0 -- -- 97
2018-01-15 04:00:00 1.2 12 Noroeste 19 Noroeste 0 -- -- 95
2018-01-15 03:00:00 1.1 7 Oeste 13 Oeste 0 -- -- 96
2018-01-15 02:00:00 1.2 8 Oeste 15 Oeste 0 -- -- 95
2018-01-15 01:00:00 1.4 5 Oeste 10 Noroeste 0 -- -- 96
2018-01-15 00:00:00 1.5 6 Noroeste 11 Noroeste 0 -- -- 94
2018-01-14 23:00:00 2 5 Noroeste 8 Oeste 0 -- -- 93
2018-01-14 22:00:00 2 4 Noroeste 12 Noroeste 0 -- -- 92
2018-01-14 21:00:00 1.9 10 Noroeste 16 Noroeste 0 -- -- 92
2018-01-14 20:00:00 2 9 Noroeste 14 Noroeste 0 -- -- 91
2018-01-14 19:00:00 2.3 8 Noroeste 14 Noroeste 0 -- -- 90
2018-01-14 18:00:00 2.7 8 Norte 15 Norte 0 -- -- 88
2018-01-14 17:00:00 3.3 9 Norte 23 Noroeste 0 -- -- 86
2018-01-14 16:00:00 3.9 10 Norte 20 Norte 0 -- -- 84
2018-01-14 15:00:00 4.5 10 Norte 19 Norte 0 -- -- 84
2018-01-14 14:00:00 4.1 10 Norte 20 Norte 0 -- -- 84
2018-01-14 13:00:00 3.8 13 Norte 20 Norte 0 -- -- 85
2018-01-14 12:00:00 2.6 8 Noroeste 16 Noroeste 0 -- -- 91
2018-01-14 11:00:00 1.6 5 Nordeste 13 Norte 0 -- -- 98
2018-01-14 10:00:00 1 4 Este 12 Nordeste 0 -- -- 97
2018-01-14 09:00:00 1 4 Norte 12 Norte 0 -- -- 94
2018-01-14 08:00:00 1 2 Norte 17 Nordeste 0 -- -- 97
2018-01-14 07:00:00 1.4 6 Nordeste 13 Norte 0 -- -- 94
2018-01-14 06:00:00 1.5 8 Norte 19 Norte 0.2 -- -- 94
2018-01-14 05:00:00 1.6 8 Norte 14 Norte 0.6 -- -- 94
2018-01-14 04:00:00 1.5 6 Norte 17 Noroeste 0.2 -- -- 95
2018-01-14 03:00:00 1.3 6 Norte 18 Norte 0.4 -- -- 96
2018-01-14 02:00:00 1 10 Norte 33 Noroeste 0.2 -- -- 97
2018-01-14 01:00:00 0.9 19 Noroeste 28 Noroeste 0.2 -- -- 97
2018-01-14 00:00:00 1.1 14 Norte 26 Norte 0.6 -- -- 97
2018-01-13 23:00:00 0.7 4 Nordeste 8 Noroeste 0.8 -- -- 99
2018-01-13 22:00:00 0.8 8 Noroeste 11 Noroeste 0.8 -- -- 100
2018-01-13 21:00:00 0.3 0 Calma 0 Calma 0.2 -- -- 100
2018-01-13 20:00:00 0.3 0 Calma 2 Noroeste 0 -- -- 100
2018-01-13 19:00:00 0.6 0 Calma 2 Norte 0.2 -- -- 99
2018-01-13 18:00:00 1.5 3 Sudoeste 12 Sudoeste 0.8 -- -- 98
2018-01-13 17:00:00 1.9 10 Sudoeste 18 Sudoeste 0.4 -- -- 98
2018-01-13 16:00:00 1.9 10 Sudoeste 18 Sudoeste 0.2 -- -- 98
2018-01-13 15:00:00 2.5 9 Sudoeste 17 Sudoeste 0 -- -- 97
2018-01-13 14:00:00 1.5 7 Sudoeste 12 Sudoeste 0 -- -- 100
2018-01-13 13:00:00 1.2 8 Sudoeste 17 Sudoeste 0 -- -- 100
2018-01-13 12:00:00 0.7 13 Sudoeste 21 Sudoeste 0 -- -- 100
2018-01-13 11:00:00 0.6 14 Sudoeste 24 Sudoeste 0 -- -- 100
2018-01-13 10:00:00 0.2 13 Sudoeste 27 Sudoeste 0 -- -- 100
2018-01-13 09:00:00 0.2 19 Sudoeste 28 Sudoeste 0 -- -- 99
2018-01-13 08:00:00 1.1 6 Noroeste 18 Sudoeste 0 -- -- 94
2018-01-13 07:00:00 -0.3 2 Nordeste 9 Sudoeste 0 -- -- 98
2018-01-13 06:00:00 -0.1 2 Sur 5 Nordeste 0 -- -- 98
2018-01-13 05:00:00 0 0 Calma 6 Noroeste 0 -- -- 96
2018-01-13 04:00:00 0.5 0 Calma 12 Sudoeste 0 -- -- 95
2018-01-13 03:00:00 -0.2 2 Sudoeste 7 Sur 0 -- -- 100
2018-01-13 02:00:00 -0.3 4 Sur 8 Sur 0 -- -- 100
2018-01-13 01:00:00 -0.5 0 Calma 8 Sur 0 -- -- 99
2018-01-13 00:00:00 -0.1 2 Sudeste 9 Este 0 -- -- 100
2018-01-12 23:00:00 0 3 Este 9 Este 0 -- -- 99
2018-01-12 22:00:00 0.8 4 Nordeste 10 Nordeste 0 -- -- 98
2018-01-12 21:00:00 1.6 6 Este 9 Este 0 -- -- 96
2018-01-12 20:00:00 2.4 2 Noroeste 14 Noroeste 0 -- -- 89
2018-01-12 19:00:00 2.7 11 Norte 22 Norte 0 -- -- 89
2018-01-12 18:00:00 3.2 10 Noroeste 22 Norte 0 -- -- 87
2018-01-12 17:00:00 3.2 11 Norte 27 Noroeste 0 -- -- 89
2018-01-12 16:00:00 4.6 19 Noroeste 24 Noroeste 0 -- -- 83
2018-01-12 15:00:00 5.8 10 Oeste 14 Oeste 0 -- -- 81
2018-01-12 14:00:00 5.7 10 Noroeste 19 Noroeste 0 -- -- 79
2018-01-12 13:00:00 4.7 15 Noroeste 24 Noroeste 0 -- -- 82
2018-01-12 12:00:00 4.9 15 Noroeste 22 Noroeste 0 -- -- 81
2018-01-12 11:00:00 3.6 8 Oeste 15 Oeste 0 -- -- 88
2018-01-12 10:00:00 2.7 10 Oeste 16 Noroeste 0 -- -- 89
2018-01-12 09:00:00 2.7 12 Noroeste 19 Noroeste 0 -- -- 90
2018-01-12 08:00:00 3 10 Oeste 17 Noroeste 0 -- -- 90
2018-01-12 07:00:00 2.5 11 Oeste 18 Noroeste 0 -- -- 92
2018-01-12 06:00:00 2.9 10 Noroeste 15 Noroeste 0 -- -- 91
2018-01-12 05:00:00 3.9 8 Noroeste 12 Noroeste 0 -- -- 90
2018-01-12 04:00:00 4.1 9 Noroeste 13 Noroeste 0 -- -- 92
2018-01-12 03:00:00 4.3 5 Oeste 14 Noroeste 0 -- -- 94
2018-01-12 02:00:00 4 9 Noroeste 17 Noroeste 0 -- -- 94
2018-01-12 01:00:00 4.6 8 Noroeste 23 Nordeste 0 -- -- 91
2018-01-12 00:00:00 5.7 14 Norte 23 Norte 0 -- -- 87
2018-01-11 23:00:00 6 10 Norte 15 Norte 0 -- -- 83
2018-01-11 22:00:00 6 8 Norte 19 Este 0 -- -- 83
2018-01-11 21:00:00 6.4 7 Norte 30 Norte 0 -- -- 80
2018-01-11 20:00:00 6.7 15 Nordeste 36 Norte 0 -- -- 76
2018-01-11 19:00:00 6.8 21 Nordeste 38 Norte 0 -- -- 69
2018-01-11 18:00:00 6 8 Nordeste 25 Norte 0 -- -- 69
2018-01-11 17:00:00 6.5 21 Norte 43 Noroeste 0 -- -- 67
2018-01-11 16:00:00 7.1 25 Noroeste 41 Noroeste 0 -- -- 66
2018-01-11 15:00:00 7 23 Norte 35 Noroeste 0 -- -- 66
2018-01-11 14:00:00 5.4 21 Noroeste 36 Norte 0 -- -- 74
2018-01-11 13:00:00 5.4 22 Noroeste 38 Norte 0 -- -- 77
2018-01-11 12:00:00 4 20 Noroeste 33 Norte 0 -- -- 80
2018-01-11 11:00:00 2.8 17 Noroeste 32 Norte 0 -- -- 86
2018-01-11 10:00:00 2.3 18 Noroeste 28 Norte 0 -- -- 85
2018-01-11 09:00:00 1.6 4 Norte 14 Noroeste 0 -- -- 89
2018-01-11 08:00:00 1.4 7 Noroeste 29 Norte 0 -- -- 88
2018-01-11 07:00:00 2 14 Norte 37 Norte 0 -- -- 86
2018-01-11 06:00:00 2.1 20 Noroeste 42 Norte 0 -- -- 87
2018-01-11 05:00:00 2.7 27 Norte 50 Norte 0 -- -- 86
2018-01-11 04:00:00 2.7 28 Norte 50 Noroeste 0 -- -- 86
2018-01-11 03:00:00 2.5 26 Noroeste 40 Noroeste 0 -- -- 89
2018-01-11 02:00:00 2.2 26 Noroeste 45 Noroeste 0 -- -- 86
2018-01-11 01:00:00 2.6 35 Noroeste 59 Norte 0 -- -- 84
2018-01-11 00:00:00 2.6 30 Noroeste 44 Noroeste 0 -- -- 83
2018-01-10 23:00:00 2.5 26 Noroeste 40 Norte 0 -- -- 84
2018-01-10 22:00:00 2.7 24 Norte 45 Norte 0 -- -- 85
2018-01-10 21:00:00 3.6 27 Norte 44 Norte 0 -- -- 82
2018-01-10 20:00:00 4.6 26 Norte 42 Norte 0 -- -- 81
2018-01-10 19:00:00 5.8 23 Norte 46 Norte 0 -- -- 82
2018-01-10 18:00:00 5.8 27 Norte 51 Noroeste 0 -- -- 85
2018-01-10 17:00:00 5.1 39 Noroeste 54 Noroeste 0.2 -- -- 89
2018-01-10 16:00:00 6.4 31 Noroeste 47 Noroeste 0 -- -- 85
2018-01-10 15:00:00 6.8 27 Noroeste 43 Noroeste 0 -- -- 87
2018-01-10 14:00:00 5.8 22 Noroeste 45 Noroeste 0 -- -- 91
2018-01-10 13:00:00 6.2 21 Noroeste 35 Noroeste 0 -- -- 85
2018-01-10 12:00:00 6.1 16 Noroeste 27 Noroeste 0 -- -- 87
2018-01-10 11:00:00 5.1 6 Noroeste 26 Noroeste 0 -- -- 92
2018-01-10 10:00:00 4.1 9 Noroeste 27 Noroeste 0 -- -- 94
2018-01-10 09:00:00 3.6 15 Noroeste 22 Noroeste 0 -- -- 97
2018-01-10 08:00:00 3.7 9 Noroeste 24 Noroeste 0 -- -- 97
2018-01-10 07:00:00 3.7 6 Oeste 18 Noroeste 0 -- -- 96
2018-01-10 06:00:00 3.7 15 Noroeste 26 Norte 0 -- -- 96
2018-01-10 05:00:00 3.8 10 Norte 23 Noroeste 0 -- -- 95
2018-01-10 04:00:00 3.8 10 Noroeste 23 Norte 0 -- -- 94
2018-01-10 03:00:00 3.7 16 Noroeste 27 Noroeste 0 -- -- 94
2018-01-10 02:00:00 3.5 19 Noroeste 27 Norte 0 -- -- 95
2018-01-10 01:00:00 3.8 12 Norte 26 Norte 0 -- -- 92
2018-01-10 00:00:00 3.7 9 Noroeste 23 Noroeste 0 -- -- 92
2018-01-09 23:00:00 3.5 5 Norte 31 Noroeste 0 -- -- 93
2018-01-09 22:00:00 3.1 14 Noroeste 23 Noroeste 0 -- -- 94
2018-01-09 21:00:00 3.2 5 Norte 24 Norte 0 -- -- 92
2018-01-09 20:00:00 2.8 17 Noroeste 35 Noroeste 0 -- -- 95
2018-01-09 19:00:00 3 11 Noroeste 34 Noroeste 0 -- -- 92
2018-01-09 18:00:00 3.1 16 Noroeste 29 Noroeste 0 -- -- 92
2018-01-09 17:00:00 3 18 Noroeste 34 Noroeste 0 -- -- 93
2018-01-09 16:00:00 3 17 Noroeste 35 Noroeste 0 -- -- 85
2018-01-09 15:00:00 2.4 26 Noroeste 41 Noroeste 0 -- -- 87
2018-01-09 14:00:00 3.9 23 Noroeste 40 Noroeste 0 -- -- 72
2018-01-09 13:00:00 4.1 21 Noroeste 34 Noroeste 0 -- -- 71
2018-01-09 12:00:00 3.1 21 Noroeste 29 Noroeste 0 -- -- 76
2018-01-09 11:00:00 2.6 14 Noroeste 23 Noroeste 0 -- -- 75
2018-01-09 10:00:00 0.5 5 Noroeste 12 Noroeste 0 -- -- 79
2018-01-09 09:00:00 -0.3 8 Noroeste 30 Noroeste 0 -- -- 77
2018-01-09 08:00:00 0.1 20 Noroeste 33 Noroeste 0 -- -- 74
2018-01-09 07:00:00 0.6 13 Norte 27 Norte 0 -- -- 71
2018-01-09 06:00:00 -0.7 4 Noroeste 25 Noroeste 0 -- -- 79
2018-01-09 05:00:00 -0.4 4 Noroeste 32 Noroeste 0 -- -- 81
2018-01-09 04:00:00 0.2 12 Noroeste 23 Noroeste 0 -- -- 78
2018-01-09 03:00:00 -0.1 11 Noroeste 18 Noroeste 0 -- -- 79
2018-01-09 02:00:00 0.2 10 Norte 25 Noroeste 0 -- -- 82
2018-01-09 01:00:00 0.2 16 Noroeste 22 Noroeste 0 -- -- 86
2018-01-09 00:00:00 0.3 11 Noroeste 29 Noroeste 0 -- -- 84
2018-01-08 23:00:00 0.3 15 Noroeste 23 Noroeste 0 -- -- 86
2018-01-08 22:00:00 1.1 10 Noroeste 21 Noroeste 0 -- -- 83
2018-01-08 21:00:00 1 10 Noroeste 14 Noroeste 0 -- -- 85
2018-01-08 20:00:00 1.7 9 Noroeste 14 Noroeste 0 -- -- 82
2018-01-08 19:00:00 2 5 Oeste 14 Noroeste 0 -- -- 83
2018-01-08 18:00:00 3.2 0 Calma 14 Norte 0 -- -- 79
2018-01-08 17:00:00 5 8 Noroeste 19 Noroeste 0 -- -- 73
2018-01-08 16:00:00 5.9 15 Noroeste 19 Noroeste 0 -- -- 71
2018-01-08 15:00:00 6 13 Noroeste 17 Noroeste 0 -- -- 66
2018-01-08 14:00:00 5.2 13 Noroeste 17 Noroeste 0 -- -- 73
2018-01-08 13:00:00 2.4 7 Oeste 14 Noroeste 0 -- -- 86
2018-01-08 12:00:00 -0.1 9 Oeste 15 Oeste 0 -- -- 86
2018-01-08 11:00:00 -1.2 9 Oeste 15 Oeste 0 -- -- 87
2018-01-08 10:00:00 -1.9 6 Oeste 13 Oeste 0 -- -- 92
2018-01-08 09:00:00 -2.1 9 Oeste 13 Oeste 0 -- -- 94
2018-01-08 08:00:00 -1.5 3 Oeste 13 Oeste 0 -- -- 96
2018-01-08 07:00:00 -1.1 7 Oeste 15 Oeste 0 -- -- 95
2018-01-08 06:00:00 -1.2 8 Oeste 12 Oeste 0 -- -- 100
2018-01-08 05:00:00 -0.8 6 Oeste 10 Oeste 0 -- -- 100
2018-01-08 04:00:00 0.3 4 Noroeste 8 Noroeste 0 -- -- 100
2018-01-08 03:00:00 0.7 4 Nordeste 9 Norte 0 -- -- 100
2018-01-08 02:00:00 0.8 4 Norte 8 Nordeste 0 -- -- 100
2018-01-08 01:00:00 0.9 3 Nordeste 5 Nordeste 0 -- -- 100
2018-01-08 00:00:00 0.9 0 Calma 6 Noroeste 0 -- -- 100
2018-01-07 23:00:00 1 3 Sudoeste 10 Sudoeste 0 -- -- 100
2018-01-07 22:00:00 1 4 Sudoeste 10 Sudoeste 0 -- -- 100
2018-01-07 21:00:00 1.1 3 Sur 10 Sudoeste 0 -- -- 100
2018-01-07 20:00:00 1.2 5 Noroeste 17 Oeste 0 -- -- 100
2018-01-07 19:00:00 1.3 12 Sudoeste 38 Sur 0 -- -- 100
2018-01-07 18:00:00 1.6 21 Sudoeste 31 Sur 0 -- -- 100
2018-01-07 17:00:00 2.1 16 Sur 23 Sur 0 -- -- 100
2018-01-07 16:00:00 2.7 16 Sur 22 Sur 0 -- -- 100
2018-01-07 15:00:00 2.4 12 Sur 19 Sur 0.4 -- -- 100
2018-01-07 14:00:00 2.2 11 Sudoeste 18 Sudoeste 1 -- -- 99
2018-01-07 13:00:00 2.4 3 Noroeste 15 Oeste 1 -- -- 98
2018-01-07 12:00:00 1.8 4 Noroeste 10 Oeste 1 -- -- 99
2018-01-07 11:00:00 1.4 5 Oeste 8 Oeste 1.4 -- -- 99
2018-01-07 10:00:00 1.6 2 Sudoeste 8 Sur 1.6 -- -- 98
2018-01-07 09:00:00 1.7 7 Sur 10 Sur 1 -- -- 97
2018-01-07 08:00:00 2.1 6 Sudeste 21 Este 1.4 -- -- 94
2018-01-07 07:00:00 2 8 Este 23 Nordeste 1 -- -- 94
2018-01-07 06:00:00 1.2 2 Nordeste 6 Este 0.2 -- -- 100
2018-01-07 05:00:00 0.7 0 Calma 3 Noroeste 0.2 -- -- 100
2018-01-07 04:00:00 0.3 2 Noroeste 3 Noroeste 0 -- -- 100
2018-01-07 03:00:00 0.3 0 Calma 4 Sudeste 0.2 -- -- 100
2018-01-07 02:00:00 0.2 0 Calma 9 Sudeste 0 -- -- 100
2018-01-07 01:00:00 0.5 6 Sudeste 22 Sudeste 0.6 -- -- 99
2018-01-07 00:00:00 0.9 13 Sudeste 19 Sudeste 0.2 -- -- 98
2018-01-06 23:00:00 0.3 0 Calma -- -- 0.2 -- -- 100
2018-01-06 22:00:00 0.2 0 Calma 6 Nordeste 0 -- -- 100
2018-01-06 21:00:00 0.2 4 Nordeste 6 Nordeste 0 -- -- 100
2018-01-06 20:00:00 0.2 2 Este 9 Este 0.2 -- -- 100
2018-01-06 19:00:00 0.6 6 Este 15 Sudeste 0.6 -- -- 100
2018-01-06 18:00:00 0.9 7 Sudeste 16 Este 1 -- -- 99
2018-01-06 17:00:00 1 5 Sudeste 12 Sudeste 0.6 -- -- 100
2018-01-06 16:00:00 0.6 0 Calma -- -- 0.6 -- -- 100
2018-01-06 15:00:00 0.4 0 Calma -- -- 0.6 -- -- 100
2018-01-06 14:00:00 0.3 0 Calma 6 Este 0.4 -- -- 100
2018-01-06 13:00:00 0.7 3 Nordeste 6 Nordeste 1 -- -- 100
2018-01-06 12:00:00 1 2 Nordeste 6 Nordeste 0.8 -- -- 100
2018-01-06 11:00:00 0.7 0 Calma 4 Sudeste 0.4 -- -- 100
2018-01-06 10:00:00 0.5 0 Calma 0 Calma 0.2 -- -- 100
2018-01-06 09:00:00 0.6 0 Calma 2 Este 0 -- -- 100
2018-01-06 08:00:00 0.9 0 Calma 5 Nordeste 0.8 -- -- 99
2018-01-06 07:00:00 1.8 0 Calma 8 Sudeste 0.4 -- -- 99
2018-01-06 06:00:00 1.8 4 Sudeste 10 Sur 0.8 -- -- 99
2018-01-06 05:00:00 2.1 3 Sudoeste 9 Sur 0.4 -- -- 97
2018-01-06 04:00:00 2.5 6 Sur 11 Sudeste 1 -- -- 96
2018-01-06 03:00:00 3 4 Sur 14 Sudeste 1.2 -- -- 95
2018-01-06 02:00:00 3.6 11 Sudeste 17 Sudeste 1 -- -- 96
2018-01-06 01:00:00 4 11 Sur 19 Sur 1.2 -- -- 96
2018-01-06 00:00:00 4.9 2 Nordeste 27 Sudoeste 0 -- -- 94
2018-01-05 23:00:00 5.2 21 Sur 27 Sur 2.8 -- -- 92
2018-01-05 22:00:00 6.2 3 Oeste 9 Sudeste 0.6 -- -- 92
2018-01-05 21:00:00 6.7 2 Norte 21 Norte 1.2 -- -- 84
2018-01-05 20:00:00 7.1 4 Noroeste 10 Oeste 0.2 -- -- 95
2018-01-05 19:00:00 7.5 3 Oeste 14 Norte 0.4 -- -- 91
2018-01-05 18:00:00 8.1 9 Norte 18 Norte 0 -- -- 84
2018-01-05 17:00:00 8.7 11 Norte 26 Norte 0 -- -- 81
2018-01-05 16:00:00 9.2 14 Norte 33 Norte 0 -- -- 84
2018-01-05 15:00:00 10 21 Norte 44 Noroeste 0 -- -- 81
2018-01-05 14:00:00 9.3 23 Noroeste 50 Noroeste 0 -- -- 90
2018-01-05 13:00:00 8.5 33 Noroeste 58 Noroeste 0 -- -- 93
2018-01-05 12:00:00 8.6 37 Noroeste 48 Noroeste 0.4 -- -- 90
2018-01-05 11:00:00 8.3 32 Noroeste 48 Noroeste 0 -- -- 91
2018-01-05 10:00:00 9.3 29 Noroeste 58 Noroeste 0 -- -- 81
2018-01-05 09:00:00 8.8 25 Noroeste 50 Noroeste 0 -- -- 79
2018-01-05 08:00:00 8.7 28 Noroeste 50 Noroeste 0 -- -- 80
2018-01-05 07:00:00 8.5 40 Noroeste 59 Noroeste 0 -- -- 83
2018-01-05 06:00:00 9.1 27 Noroeste 54 Noroeste 0 -- -- 78
2018-01-05 05:00:00 9.3 28 Noroeste 55 Noroeste 0 -- -- 78
2018-01-05 04:00:00 9.4 18 Noroeste 46 Noroeste 0 -- -- 78
2018-01-05 03:00:00 9.6 31 Noroeste 46 Noroeste 0 -- -- 82
2018-01-05 02:00:00 10 21 Noroeste 40 Noroeste 0 -- -- 82
2018-01-05 01:00:00 10.3 18 Noroeste 48 Norte 0 -- -- 79
2018-01-05 00:00:00 10 24 Noroeste 54 Noroeste 0 -- -- 84
2018-01-04 23:00:00 10.2 27 Noroeste 48 Noroeste 0 -- -- 83
2018-01-04 22:00:00 10.7 27 Noroeste 41 Norte 0 -- -- 82
2018-01-04 21:00:00 11 19 Noroeste 44 Noroeste 0 -- -- 80
2018-01-04 20:00:00 11 28 Noroeste 52 Noroeste 0 -- -- 77
2018-01-04 19:00:00 11 28 Noroeste 45 Norte 0 -- -- 77
2018-01-04 18:00:00 10.8 24 Noroeste 46 Noroeste 0 -- -- 76
2018-01-04 17:00:00 11.5 29 Noroeste 56 Noroeste 0 -- -- 73
2018-01-04 16:00:00 12.3 24 Noroeste 49 Noroeste 0 -- -- 72
2018-01-04 15:00:00 12.6 24 Norte 55 Norte 0 -- -- 69
2018-01-04 14:00:00 12.5 31 Norte 61 Norte 0 -- -- 70
2018-01-04 13:00:00 12 23 Noroeste 44 Noroeste 0 -- -- 77
2018-01-04 12:00:00 11.4 20 Norte 47 Noroeste 0 -- -- 81
2018-01-04 11:00:00 11.4 23 Norte 42 Norte 0 -- -- 84
2018-01-04 10:00:00 10.6 12 Noroeste 24 Noroeste 0 -- -- 91
2018-01-04 09:00:00 10.9 5 Noroeste 30 Noroeste 0 -- -- 89
2018-01-04 08:00:00 10.9 16 Noroeste 32 Noroeste 0 -- -- 89
2018-01-04 07:00:00 10.8 22 Noroeste 35 Noroeste 0 -- -- 90
2018-01-04 06:00:00 10.8 21 Noroeste 39 Noroeste 0 -- -- 90
2018-01-04 05:00:00 10.7 27 Noroeste 41 Noroeste 0 -- -- 90
2018-01-04 04:00:00 11.1 19 Noroeste 39 Noroeste 0 -- -- 89
2018-01-04 03:00:00 11.5 25 Noroeste 40 Noroeste 0 -- -- 88
2018-01-04 02:00:00 11.9 18 Norte 32 Noroeste 0 -- -- 88
2018-01-04 01:00:00 12.1 14 Norte 37 Norte 0 -- -- 88
2018-01-04 00:00:00 12.2 15 Norte 45 Norte 0 -- -- 87
2018-01-03 23:00:00 12.3 21 Norte 37 Noroeste 0 -- -- 87
2018-01-03 22:00:00 12.6 22 Norte 41 Norte 0 -- -- 87
2018-01-03 21:00:00 13.1 30 Norte 48 Noroeste 0 -- -- 85
2018-01-03 20:00:00 13.3 29 Noroeste 50 Noroeste 0 -- -- 85
2018-01-03 19:00:00 13.5 27 Noroeste 41 Noroeste 0 -- -- 85
2018-01-03 18:00:00 13.9 26 Noroeste 44 Noroeste 0 -- -- 83
2018-01-03 17:00:00 14.6 24 Noroeste 50 Noroeste 0 -- -- 81
2018-01-03 16:00:00 15.1 28 Noroeste 46 Noroeste 0 -- -- 79
2018-01-03 15:00:00 14.2 21 Norte 45 Norte 0 -- -- 83
2018-01-03 14:00:00 13.4 9 Norte 31 Noroeste 0 -- -- 86
2018-01-03 13:00:00 12.8 17 Norte 35 Norte 0 -- -- 88
2018-01-03 12:00:00 12.3 13 Noroeste 26 Norte 0 -- -- 90
2018-01-03 11:00:00 12 13 Norte 31 Norte 0 -- -- 92
2018-01-03 10:00:00 11.9 13 Noroeste 32 Norte 0 -- -- 92
2018-01-03 09:00:00 11.9 21 Norte 37 Norte 0 -- -- 92
2018-01-03 08:00:00 11.9 23 Noroeste 41 Noroeste 0 -- -- 91
2018-01-03 07:00:00 11.7 15 Noroeste 43 Noroeste 0 -- -- 92
2018-01-03 06:00:00 11.8 27 Noroeste 44 Noroeste 0 -- -- 92
2018-01-03 05:00:00 11.6 21 Noroeste 54 Noroeste 0 -- -- 93
2018-01-03 04:00:00 11.6 22 Noroeste 40 Noroeste 0 -- -- 93
2018-01-03 03:00:00 11.4 24 Noroeste 36 Noroeste 0 -- -- 95
2018-01-03 02:00:00 11.3 23 Noroeste 40 Noroeste 0 -- -- 95
2018-01-03 01:00:00 11 27 Noroeste 49 Noroeste 0 -- -- 96
2018-01-03 00:00:00 10.9 34 Noroeste 53 Noroeste 0 -- -- 95
2018-01-02 23:00:00 10.9 20 Noroeste 43 Noroeste 0 -- -- 93
2018-01-02 22:00:00 11 22 Noroeste 39 Noroeste 0 -- -- 91
2018-01-02 21:00:00 11.1 13 Noroeste 33 Noroeste 0 -- -- 89
2018-01-02 20:00:00 10.8 25 Noroeste 50 Noroeste 0 -- -- 91
2018-01-02 19:00:00 10.7 26 Noroeste 37 Noroeste 0.2 -- -- 89
2018-01-02 18:00:00 11.3 9 Norte 39 Noroeste 0 -- -- 86
2018-01-02 17:00:00 11.4 13 Norte 33 Norte 0 -- -- 85
2018-01-02 16:00:00 11 27 Noroeste 51 Noroeste 0 -- -- 85
2018-01-02 15:00:00 10.5 18 Norte 41 Norte 0 -- -- 85
2018-01-02 14:00:00 10.5 12 Norte 38 Norte 0 -- -- 83
2018-01-02 13:00:00 9.8 24 Norte 44 Noroeste 0 -- -- 85
2018-01-02 12:00:00 9.7 23 Norte 40 Noroeste 0.2 -- -- 84
2018-01-02 11:00:00 8.5 12 Norte 52 Noroeste 0 -- -- 87
2018-01-02 10:00:00 7.4 23 Noroeste 40 Noroeste 0 -- -- 88
2018-01-02 09:00:00 7.2 17 Norte 29 Noroeste 0 -- -- 88
2018-01-02 08:00:00 7.3 12 Noroeste 35 Noroeste 0 -- -- 88
2018-01-02 07:00:00 7.3 23 Noroeste 36 Noroeste 0 -- -- 88
2018-01-02 06:00:00 7.5 11 Noroeste 30 Noroeste 0 -- -- 87
2018-01-02 05:00:00 7.2 21 Noroeste 33 Noroeste 0 -- -- 88
2018-01-02 04:00:00 7.8 14 Noroeste 36 Noroeste 0 -- -- 85
2018-01-02 03:00:00 8.1 21 Norte 53 Noroeste 0 -- -- 86
2018-01-02 02:00:00 8.3 25 Norte 40 Norte 0 -- -- 87
2018-01-02 01:00:00 8.6 17 Noroeste 37 Norte 0 -- -- 87
2018-01-02 00:00:00 8.7 17 Norte 33 Noroeste 0 -- -- 86
2018-01-01 23:00:00 8.9 14 Nordeste 42 Noroeste 0 -- -- 84
2018-01-01 22:00:00 8.8 21 Norte 48 Noroeste 0 -- -- 85
2018-01-01 21:00:00 9 27 Noroeste 48 Noroeste 0 -- -- 84
2018-01-01 20:00:00 9.2 24 Noroeste 53 Norte 0 -- -- 85
2018-01-01 19:00:00 9.2 37 Noroeste 61 Noroeste 0 -- -- 85
2018-01-01 18:00:00 9 36 Noroeste 63 Norte 0 -- -- 84
2018-01-01 17:00:00 9.3 41 Norte 63 Noroeste 0 -- -- 80
2018-01-01 16:00:00 8.4 35 Noroeste 61 Noroeste 0 -- -- 83
2018-01-01 15:00:00 7.7 37 Noroeste 59 Noroeste 0 -- -- 83
2018-01-01 14:00:00 7.5 37 Noroeste 55 Norte 0 -- -- 82
2018-01-01 13:00:00 7.6 30 Noroeste 53 Noroeste 0 -- -- 81
2018-01-01 12:00:00 6.4 29 Noroeste 62 Noroeste 0 -- -- 84
2018-01-01 11:00:00 5.6 37 Noroeste 66 Noroeste 0 -- -- 84
2018-01-01 10:00:00 4.7 36 Noroeste 62 Noroeste 0 -- -- 87
2018-01-01 09:00:00 4.1 33 Noroeste 58 Norte 0 -- -- 87
2018-01-01 08:00:00 3.7 36 Noroeste 56 Noroeste 0 -- -- 88
2018-01-01 07:00:00 3.3 35 Noroeste 54 Noroeste 0 -- -- 87
2018-01-01 06:00:00 2.8 30 Noroeste 52 Noroeste 0 -- -- 87
2018-01-01 05:00:00 2.7 9 Norte 24 Noroeste 0 -- -- 83
2018-01-01 04:00:00 2.3 7 Oeste 14 Noroeste 0 -- -- 84
2018-01-01 03:00:00 3.5 5 Noroeste 40 Norte 0 -- -- 79
2018-01-01 02:00:00 3.8 17 Norte 35 Norte 0 -- -- 78
2018-01-01 01:00:00 3.4 15 Norte 31 Noroeste 0 -- -- 80
2018-01-01 00:00:00 3.1 21 Noroeste 32 Norte 0 -- -- 80
2017-12-31 23:00:00 3.4 21 Noroeste 37 Norte 0 -- -- 79
2017-12-31 22:00:00 4.1 22 Noroeste 36 Noroeste 0 -- -- 83
2017-12-31 21:00:00 5.2 14 Norte 28 Norte 0 -- -- 83
2017-12-31 20:00:00 6.1 16 Norte 26 Norte 0 -- -- 85
2017-12-31 19:00:00 6.4 7 Nordeste 18 Nordeste 0 -- -- 89
2017-12-31 18:00:00 7.1 11 Norte 48 Norte 0 -- -- 85
2017-12-31 17:00:00 7.8 21 Norte 51 Norte 2 -- -- 87
2017-12-31 16:00:00 9.7 19 Noroeste 47 Norte 0 -- -- 86
2017-12-31 15:00:00 10.8 25 Noroeste 67 Noroeste 0 -- -- 75
2017-12-31 14:00:00 11.4 32 Noroeste 45 Noroeste 0 -- -- 70
2017-12-31 13:00:00 10 24 Noroeste 46 Noroeste 0 -- -- 73
2017-12-31 12:00:00 10.1 28 Noroeste 55 Noroeste 0 -- -- 73
2017-12-31 11:00:00 10.1 33 Noroeste 52 Noroeste 0 -- -- 73
2017-12-31 10:00:00 9.4 23 Noroeste 42 Noroeste 0 -- -- 76
2017-12-31 09:00:00 9.3 23 Noroeste 48 Noroeste 0 -- -- 76
2017-12-31 08:00:00 9.3 22 Noroeste 34 Noroeste 0 -- -- 77
2017-12-31 07:00:00 9.4 13 Noroeste 33 Noroeste 0 -- -- 78
2017-12-31 06:00:00 9.3 7 Noroeste 22 Noroeste 0 -- -- 78
2017-12-31 05:00:00 9.3 9 Noroeste 24 Norte 0 -- -- 78
2017-12-31 04:00:00 9.3 8 Noroeste 24 Norte 0 -- -- 77
2017-12-31 03:00:00 9.2 22 Noroeste 33 Noroeste 0 -- -- 79
2017-12-31 02:00:00 9.9 13 Noroeste 24 Noroeste 0 -- -- 77
2017-12-31 01:00:00 10.1 15 Noroeste 27 Noroeste 0 -- -- 74